createdAt,value
2023-04-24T00:01:03.335Z,15.93
2023-04-24T00:03:34.146Z,16.02
2023-04-24T00:06:03.633Z,16.15
2023-04-24T00:08:32.611Z,16.11
2023-04-24T00:11:01.318Z,16.16
2023-04-24T00:13:30.394Z,16.17
2023-04-24T00:16:00.736Z,16.05
2023-04-24T00:18:29.440Z,16.16
2023-04-24T00:20:58.157Z,16.24
2023-04-24T00:23:27.143Z,16.00
2023-04-24T00:25:55.873Z,16.17
2023-04-24T00:28:24.605Z,16.17
2023-04-24T00:30:53.694Z,15.96
2023-04-24T00:33:23.773Z,15.88
2023-04-24T00:35:52.428Z,16.21
2023-04-24T00:38:21.427Z,16.24
2023-04-24T00:40:50.915Z,15.95
2023-04-24T00:43:19.708Z,16.00
2023-04-24T00:45:48.955Z,16.06
2023-04-24T00:48:23.941Z,15.80
2023-04-24T00:50:52.914Z,15.98
2023-04-24T00:53:25.031Z,15.90
2023-04-24T00:55:54.056Z,16.05
2023-04-24T00:58:23.184Z,16.13
2023-04-24T01:00:54.051Z,15.96
2023-04-24T01:03:24.871Z,15.93
2023-04-24T01:05:53.722Z,15.99
2023-04-24T01:08:23.190Z,15.84
2023-04-24T01:10:53.346Z,15.77
2023-04-24T01:13:22.367Z,16.00
2023-04-24T01:15:51.335Z,15.78
2023-04-24T01:18:22.243Z,15.79
2023-04-24T01:20:56.278Z,15.66
2023-04-24T01:23:27.942Z,15.72
2023-04-24T01:25:56.793Z,15.66
2023-04-24T01:28:28.203Z,15.49
2023-04-24T01:30:57.192Z,15.77
2023-04-24T01:33:26.345Z,15.66
2023-04-24T01:35:55.091Z,15.62
2023-04-24T01:38:25.073Z,15.74
2023-04-24T01:40:56.562Z,15.61
2023-04-24T01:43:28.994Z,15.47
2023-04-24T01:46:00.382Z,15.73
2023-04-24T01:48:29.388Z,15.30
2023-04-24T01:50:58.855Z,15.32
2023-04-24T01:53:27.770Z,15.14
2023-04-24T01:55:57.838Z,15.02
2023-04-24T01:58:27.843Z,14.89
2023-04-24T02:00:58.828Z,14.62
2023-04-24T02:03:28.507Z,14.31
2023-04-24T02:05:58.014Z,14.47
2023-04-24T02:08:26.771Z,14.29
2023-04-24T02:10:57.412Z,14.38
2023-04-24T02:13:26.857Z,14.43
2023-04-24T02:15:55.592Z,14.51
2023-04-24T02:18:25.838Z,14.48
2023-04-24T02:20:55.201Z,14.68
2023-04-24T02:23:24.035Z,15.13
2023-04-24T02:25:54.334Z,15.17
2023-04-24T02:28:28.774Z,15.09
2023-04-24T02:30:57.445Z,15.23
2023-04-24T02:33:26.415Z,15.26
2023-04-24T02:35:55.220Z,15.07
2023-04-24T02:38:23.929Z,14.98
2023-04-24T02:40:53.148Z,14.97
2023-04-24T02:43:21.942Z,15.07
2023-04-24T02:45:52.074Z,15.06
2023-04-24T02:48:21.887Z,15.43
2023-04-24T02:50:51.521Z,15.10
2023-04-24T02:53:20.316Z,15.43
2023-04-24T02:55:49.322Z,15.08
2023-04-24T02:58:18.256Z,14.78
2023-04-24T03:00:47.106Z,14.72
2023-04-24T03:03:17.531Z,15.39
2023-04-24T03:05:46.790Z,14.86
2023-04-24T03:08:16.382Z,15.06
2023-04-24T03:10:47.007Z,14.64
2023-04-24T03:13:17.723Z,14.73
2023-04-24T03:15:47.962Z,14.66
2023-04-24T03:18:18.097Z,14.87
2023-04-24T03:20:48.729Z,15.09
2023-04-24T03:23:17.417Z,15.15
2023-04-24T03:25:46.386Z,15.18
2023-04-24T03:28:15.382Z,14.97
2023-04-24T03:30:44.571Z,15.17
2023-04-24T03:33:13.743Z,15.06
2023-04-24T03:35:44.577Z,15.22
2023-04-24T03:38:14.094Z,15.14
2023-04-24T03:40:44.057Z,15.06
2023-04-24T03:43:13.361Z,15.20
2023-04-24T03:45:42.350Z,15.15
2023-04-24T03:48:11.592Z,14.77
2023-04-24T03:50:40.615Z,14.33
2023-04-24T03:53:10.863Z,14.16
2023-04-24T03:55:41.224Z,13.92
2023-04-24T03:58:11.290Z,14.33
2023-04-24T04:00:42.878Z,14.57
2023-04-24T04:03:14.462Z,14.44
2023-04-24T04:05:43.511Z,14.91
2023-04-24T04:08:13.873Z,14.78
2023-04-24T04:10:42.577Z,15.02
2023-04-24T04:13:11.310Z,14.69
2023-04-24T04:15:40.399Z,14.66
2023-04-24T04:18:09.658Z,14.83
2023-04-24T04:20:38.664Z,15.11
2023-04-24T04:23:07.749Z,15.27
2023-04-24T04:25:38.169Z,15.19
2023-04-24T04:28:07.355Z,15.15
2023-04-24T04:30:36.200Z,15.29
2023-04-24T04:33:05.132Z,15.05
2023-04-24T04:35:34.505Z,15.05
2023-04-24T04:38:03.201Z,14.75
2023-04-24T04:40:32.884Z,14.76
2023-04-24T04:43:04.404Z,14.98
2023-04-24T04:45:33.760Z,14.85
2023-04-24T04:48:06.958Z,14.63
2023-04-24T04:50:35.598Z,14.71
2023-04-24T04:53:06.283Z,14.73
2023-04-24T04:55:35.979Z,14.90
2023-04-24T04:58:07.332Z,14.56
2023-04-24T05:00:36.825Z,15.03
2023-04-24T05:03:19.776Z,14.60
2023-04-24T05:05:49.493Z,14.75
2023-04-24T05:08:27.122Z,14.58
2023-04-24T05:10:56.851Z,14.70
2023-04-24T05:13:39.126Z,14.81
2023-04-24T05:16:09.240Z,15.04
2023-04-24T05:18:38.635Z,15.25
2023-04-24T05:21:08.300Z,14.96
2023-04-24T05:23:37.919Z,15.27
2023-04-24T05:26:07.979Z,15.31
2023-04-24T05:28:38.591Z,15.14
2023-04-24T05:31:07.792Z,15.34
2023-04-24T05:33:36.972Z,15.31
2023-04-24T05:36:07.187Z,15.35
2023-04-24T05:38:36.341Z,14.97
2023-04-24T05:41:05.283Z,15.30
2023-04-24T05:43:34.152Z,15.60
2023-04-24T05:46:06.748Z,15.64
2023-04-24T05:48:35.622Z,15.63
2023-04-24T05:51:05.948Z,15.54
2023-04-24T05:53:34.740Z,15.76
2023-04-24T05:56:03.477Z,15.81
2023-04-24T05:58:33.018Z,15.96
2023-04-24T06:01:02.761Z,16.35
2023-04-24T06:03:34.000Z,16.29
2023-04-24T06:06:05.749Z,16.27
2023-04-24T06:08:35.572Z,16.50
2023-04-24T06:11:04.912Z,16.49
2023-04-24T06:13:34.165Z,16.44
2023-04-24T06:16:04.109Z,16.52
2023-04-24T06:18:35.118Z,16.51
2023-04-24T06:21:04.877Z,16.17
2023-04-24T06:23:34.075Z,16.07
2023-04-24T06:26:02.944Z,16.29
2023-04-24T06:28:31.982Z,16.18
2023-04-24T06:31:00.654Z,16.29
2023-04-24T06:33:31.441Z,16.37
2023-04-24T06:36:02.260Z,16.13
2023-04-24T06:38:31.539Z,16.24
2023-04-24T06:41:00.449Z,16.52
2023-04-24T06:43:29.141Z,16.50
2023-04-24T06:45:58.095Z,16.47
2023-04-24T06:48:27.318Z,16.50
2023-04-24T06:50:56.016Z,16.48
2023-04-24T06:53:26.309Z,16.34
2023-04-24T06:55:55.907Z,16.65
2023-04-24T06:58:24.727Z,16.53
2023-04-24T07:00:53.499Z,16.64
2023-04-24T07:03:22.852Z,16.88
2023-04-24T07:05:52.305Z,16.69
2023-04-24T07:08:22.170Z,16.61
2023-04-24T07:10:52.855Z,16.90
2023-04-24T07:13:21.556Z,16.78
2023-04-24T07:15:51.997Z,17.10
2023-04-24T07:18:24.459Z,17.00
2023-04-24T07:20:53.107Z,16.93
2023-04-24T07:23:22.347Z,17.01
2023-04-24T07:25:53.135Z,16.83
2023-04-24T07:28:22.087Z,16.99
2023-04-24T07:30:50.650Z,17.09
2023-04-24T07:33:19.300Z,17.18
2023-04-24T07:35:48.689Z,17.32
2023-04-24T07:38:17.508Z,17.49
2023-04-24T07:40:48.131Z,17.63
2023-04-24T07:43:19.030Z,17.74
2023-04-24T07:45:47.722Z,17.88
2023-04-24T07:48:17.428Z,18.08
2023-04-24T07:50:46.533Z,18.00
2023-04-24T07:53:15.205Z,18.08
2023-04-24T07:55:43.786Z,18.44
2023-04-24T07:58:12.784Z,18.41
2023-04-24T08:00:42.915Z,18.47
2023-04-24T08:03:13.671Z,18.53
2023-04-24T08:05:47.867Z,18.50
2023-04-24T08:08:16.882Z,18.62
2023-04-24T08:10:45.810Z,18.65
2023-04-24T08:13:14.467Z,18.66
2023-04-24T08:15:45.039Z,18.72
2023-04-24T08:18:14.595Z,18.74
2023-04-24T08:20:43.764Z,18.79
2023-04-24T08:23:12.490Z,18.73
2023-04-24T08:25:41.246Z,18.63
2023-04-24T08:28:11.152Z,18.70
2023-04-24T08:30:39.980Z,18.64
2023-04-24T08:33:10.270Z,18.86
2023-04-24T08:35:39.912Z,18.72
2023-04-24T08:38:08.604Z,19.18
2023-04-24T08:40:37.422Z,19.11
2023-04-24T08:43:06.424Z,19.41
2023-04-24T08:45:35.301Z,19.62
2023-04-24T08:48:05.898Z,19.80
2023-04-24T08:50:39.016Z,20.00
2023-04-24T08:53:11.935Z,20.16
2023-04-24T08:55:41.522Z,20.16
2023-04-24T08:58:10.712Z,20.43
2023-04-24T09:00:45.105Z,20.37
2023-04-24T09:03:14.589Z,20.42
2023-04-24T09:05:46.771Z,20.52
2023-04-24T09:08:16.103Z,20.56
2023-04-24T09:10:44.874Z,20.77
2023-04-24T09:13:13.509Z,20.83
2023-04-24T09:15:43.063Z,20.90
2023-04-24T09:18:11.763Z,20.95
2023-04-24T09:21:02.951Z,21.00
2023-04-24T09:23:33.061Z,21.15
2023-04-24T09:26:03.284Z,21.23
2023-04-24T09:28:34.250Z,21.31
2023-04-24T09:31:08.163Z,21.39
2023-04-24T09:33:37.404Z,21.40
2023-04-24T09:36:08.069Z,21.42
2023-04-24T09:38:38.574Z,21.48
2023-04-24T09:41:09.187Z,21.31
2023-04-24T09:43:38.341Z,21.51
2023-04-24T09:46:08.373Z,21.49
2023-04-24T09:48:38.600Z,21.47
2023-04-24T09:51:12.409Z,21.37
2023-04-24T09:53:41.514Z,21.24
2023-04-24T09:56:13.549Z,21.53
2023-04-24T09:58:42.517Z,21.65
2023-04-24T10:01:11.515Z,21.44
2023-04-24T10:03:40.657Z,21.65
2023-04-24T10:06:16.176Z,21.59
2023-04-24T10:08:47.433Z,21.40
2023-04-24T10:11:15.902Z,21.15
2023-04-24T10:13:45.534Z,21.12
2023-04-24T10:16:14.432Z,21.46
2023-04-24T10:18:43.363Z,21.29
2023-04-24T10:21:13.906Z,21.27
2023-04-24T10:23:44.028Z,21.21
2023-04-24T10:26:18.228Z,21.13
2023-04-24T10:28:47.348Z,21.05
2023-04-24T10:31:16.805Z,21.24
2023-04-24T10:33:46.019Z,21.35
2023-04-24T10:36:17.494Z,21.36
2023-04-24T10:38:49.915Z,21.54
2023-04-24T10:41:21.602Z,21.47
2023-04-24T10:43:53.002Z,21.70
2023-04-24T10:46:23.062Z,21.68
2023-04-24T10:48:55.091Z,21.61
2023-04-24T10:51:26.907Z,21.83
2023-04-24T10:53:55.896Z,21.59
2023-04-24T10:56:24.615Z,21.72
2023-04-24T10:58:54.829Z,21.39
2023-04-24T11:01:28.365Z,21.69
2023-04-24T11:03:58.688Z,21.92
2023-04-24T11:06:33.664Z,21.71
2023-04-24T11:09:07.519Z,21.92
2023-04-24T11:11:37.996Z,21.97
2023-04-24T11:14:11.148Z,22.12
2023-04-24T11:16:47.224Z,22.40
2023-04-24T11:19:26.654Z,22.51
2023-04-24T11:22:02.863Z,22.54
2023-04-24T11:24:33.591Z,22.47
2023-04-24T11:27:07.962Z,22.46
2023-04-24T11:29:44.903Z,22.52
2023-04-24T11:32:32.660Z,22.35
2023-04-24T11:35:03.172Z,22.66
2023-04-24T11:37:35.583Z,23.02
2023-04-24T11:40:04.692Z,23.61
2023-04-24T11:42:36.532Z,23.89
2023-04-24T11:45:10.422Z,23.97
2023-04-24T11:47:39.785Z,23.82
2023-04-24T11:50:10.459Z,24.02
2023-04-24T11:52:42.490Z,24.01
2023-04-24T11:55:30.388Z,23.88
2023-04-24T11:58:01.113Z,24.05
2023-04-24T12:00:31.175Z,23.83
2023-04-24T12:03:08.337Z,24.09
2023-04-24T12:05:37.796Z,24.42
2023-04-24T12:08:11.012Z,24.53
2023-04-24T12:10:39.650Z,24.48
2023-04-24T12:13:12.251Z,24.59
2023-04-24T12:15:42.429Z,24.45
2023-04-24T12:18:14.802Z,24.39
2023-04-24T12:20:43.767Z,24.11
2023-04-24T12:23:14.030Z,24.32
2023-04-24T12:25:42.883Z,24.41
2023-04-24T12:28:13.138Z,24.25
2023-04-24T12:30:45.306Z,24.16
2023-04-24T12:33:14.306Z,23.97
2023-04-24T12:35:43.348Z,23.52
2023-04-24T12:38:14.757Z,23.60
2023-04-24T12:40:44.194Z,23.55
2023-04-24T12:43:17.438Z,23.61
2023-04-24T12:45:46.972Z,23.55
2023-04-24T12:48:16.156Z,23.31
2023-04-24T12:50:47.074Z,23.42
2023-04-24T12:53:18.093Z,23.29
2023-04-24T12:55:48.003Z,23.07
2023-04-24T12:58:17.498Z,23.02
2023-04-24T13:00:47.067Z,22.91
2023-04-24T13:03:16.321Z,22.80
2023-04-24T13:05:45.653Z,22.88
2023-04-24T13:08:14.958Z,22.69
2023-04-24T13:10:45.056Z,22.56
2023-04-24T13:13:14.285Z,22.12
2023-04-24T13:15:43.041Z,21.98
2023-04-24T13:18:11.753Z,21.93
2023-04-24T13:20:42.088Z,21.39
2023-04-24T13:23:11.238Z,21.13
2023-04-24T13:25:40.352Z,21.11
2023-04-24T13:28:10.340Z,20.66
2023-04-24T13:30:39.304Z,20.70
2023-04-24T13:33:08.252Z,20.58
2023-04-24T13:35:36.988Z,20.49
2023-04-24T13:38:07.556Z,19.94
2023-04-24T13:40:36.477Z,19.50
2023-04-24T13:43:05.133Z,18.82
2023-04-24T13:45:35.154Z,18.78
2023-04-24T13:48:06.832Z,17.91
2023-04-24T13:50:35.608Z,17.56
2023-04-24T13:53:04.870Z,17.40
2023-04-24T13:55:33.646Z,17.03
2023-04-24T13:58:02.463Z,17.23
2023-04-24T14:00:32.078Z,17.46
2023-04-24T14:03:02.647Z,17.32
2023-04-24T14:05:31.444Z,17.33
2023-04-24T14:08:00.377Z,17.25
2023-04-24T14:10:29.541Z,17.38
2023-04-24T14:12:58.444Z,17.42
2023-04-24T14:15:27.169Z,17.48
2023-04-24T14:17:56.268Z,17.50
2023-04-24T14:20:26.460Z,17.74
2023-04-24T14:22:55.490Z,18.00
2023-04-24T14:25:24.708Z,18.21
2023-04-24T14:27:53.609Z,18.07
2023-04-24T14:30:22.360Z,18.07
2023-04-24T14:32:51.788Z,17.95
2023-04-24T14:35:20.655Z,18.11
2023-04-24T14:37:50.866Z,17.79
2023-04-24T14:40:41.519Z,17.66
2023-04-24T14:43:08.666Z,17.70
2023-04-24T14:45:38.862Z,17.67
2023-04-24T14:48:07.922Z,17.69
2023-04-24T14:50:37.225Z,17.41
2023-04-24T14:53:07.429Z,17.84
2023-04-24T14:55:37.301Z,18.18
2023-04-24T14:58:06.417Z,18.53
2023-04-24T15:00:35.114Z,18.64
2023-04-24T15:03:03.882Z,18.35
2023-04-24T15:05:33.390Z,17.75
2023-04-24T15:08:02.247Z,17.51
2023-04-24T15:10:32.392Z,17.51
2023-04-24T15:13:01.410Z,17.63
2023-04-24T15:15:30.107Z,17.53
2023-04-24T15:17:58.788Z,17.70
2023-04-24T15:20:30.408Z,17.52
2023-04-24T15:23:00.345Z,17.45
2023-04-24T15:25:29.247Z,17.35
2023-04-24T15:28:01.102Z,17.14
2023-04-24T15:30:31.087Z,17.21
2023-04-24T15:32:59.878Z,17.22
2023-04-24T15:35:28.618Z,17.26
2023-04-24T15:37:57.606Z,17.18
2023-04-24T15:40:26.481Z,16.96
2023-04-24T15:42:55.206Z,16.78
2023-04-24T15:45:26.919Z,16.63
2023-04-24T15:47:56.208Z,16.74
2023-04-24T15:50:25.428Z,16.60
2023-04-24T15:52:54.100Z,16.70
2023-04-24T15:55:22.824Z,16.66
2023-04-24T15:57:52.125Z,16.52
2023-04-24T16:00:21.442Z,16.52
2023-04-24T16:02:52.568Z,16.41
2023-04-24T16:05:23.454Z,16.28
2023-04-24T16:07:54.314Z,16.03
2023-04-24T16:10:23.048Z,16.36
2023-04-24T16:12:53.720Z,16.23
2023-04-24T16:15:23.279Z,15.94
2023-04-24T16:17:54.256Z,16.24
2023-04-24T16:20:23.633Z,16.01
2023-04-24T16:22:52.604Z,16.11
2023-04-24T16:25:21.685Z,16.13
2023-04-24T16:27:52.665Z,15.95
2023-04-24T16:30:21.483Z,15.77
2023-04-24T16:32:50.844Z,15.64
2023-04-24T16:35:21.757Z,15.83
2023-04-24T16:37:51.120Z,15.99
2023-04-24T16:40:20.842Z,15.93
2023-04-24T16:42:50.405Z,15.74
2023-04-24T16:45:19.617Z,15.89
2023-04-24T16:47:48.648Z,16.12
2023-04-24T16:50:18.366Z,16.13
2023-04-24T16:52:48.797Z,15.93
2023-04-24T16:55:20.587Z,16.12
2023-04-24T16:57:50.143Z,16.03
2023-04-24T17:00:19.796Z,15.97
2023-04-24T17:02:50.585Z,15.51
2023-04-24T17:05:21.712Z,15.58
2023-04-24T17:07:52.671Z,15.59
2023-04-24T17:10:23.207Z,15.68
2023-04-24T17:12:52.385Z,15.73
2023-04-24T17:15:21.490Z,15.83
2023-04-24T17:17:50.647Z,15.80
2023-04-24T17:20:23.269Z,15.88
2023-04-24T17:22:54.538Z,15.88
2023-04-24T17:25:25.698Z,15.68
2023-04-24T17:27:55.839Z,15.83
2023-04-24T17:30:25.301Z,15.90
2023-04-24T17:32:55.405Z,16.18
2023-04-24T17:35:24.580Z,16.11
2023-04-24T17:37:57.423Z,15.99
2023-04-24T17:40:26.777Z,15.87
2023-04-24T17:42:56.531Z,15.85
2023-04-24T17:45:27.943Z,15.70
2023-04-24T17:47:59.366Z,15.57
2023-04-24T17:50:32.784Z,15.34
2023-04-24T17:53:04.114Z,15.46
2023-04-24T17:55:34.682Z,14.97
2023-04-24T17:58:04.206Z,15.41
2023-04-24T18:00:34.431Z,15.27
2023-04-24T18:03:04.743Z,15.51
2023-04-24T18:05:37.080Z,15.54
2023-04-24T18:08:09.423Z,15.16
2023-04-24T18:10:41.821Z,14.97
2023-04-24T18:13:15.410Z,14.68
2023-04-24T18:15:44.807Z,15.03
2023-04-24T18:18:17.141Z,14.99
2023-04-24T18:20:47.751Z,14.68
2023-04-24T18:23:19.173Z,14.76
2023-04-24T18:25:49.945Z,14.82
2023-04-24T18:28:19.770Z,14.93
2023-04-24T18:30:49.091Z,14.92
2023-04-24T18:33:19.477Z,14.66
2023-04-24T18:35:51.472Z,14.64
2023-04-24T18:38:26.807Z,14.93
2023-04-24T18:40:57.078Z,14.68
2023-04-24T18:43:27.172Z,14.71
2023-04-24T18:45:57.467Z,14.59
2023-04-24T18:48:29.107Z,14.43
2023-04-24T18:50:59.930Z,14.68
2023-04-24T18:53:30.329Z,14.47
2023-04-24T18:56:01.921Z,14.53
2023-04-24T18:58:31.449Z,14.78
2023-04-24T19:01:03.447Z,14.86
2023-04-24T19:03:35.875Z,14.68
2023-04-24T19:06:08.495Z,14.95
2023-04-24T19:08:39.983Z,14.95
2023-04-24T19:11:09.964Z,14.68
2023-04-24T19:13:39.289Z,14.75
2023-04-24T19:16:09.055Z,14.66
2023-04-24T19:18:39.008Z,14.83
2023-04-24T19:21:09.603Z,14.59
2023-04-24T19:23:41.104Z,14.38
2023-04-24T19:26:10.520Z,14.79
2023-04-24T19:28:42.256Z,14.63
2023-04-24T19:31:11.471Z,14.74
2023-04-24T19:33:41.850Z,14.59
2023-04-24T19:36:12.408Z,14.51
2023-04-24T19:38:47.248Z,14.30
2023-04-24T19:41:17.290Z,14.58
2023-04-24T19:43:49.589Z,14.55
2023-04-24T19:46:19.852Z,14.42
2023-04-24T19:48:50.016Z,14.57
2023-04-24T19:51:21.769Z,14.60
2023-04-24T19:53:52.664Z,14.70
2023-04-24T19:56:21.967Z,14.64
2023-04-24T19:58:51.283Z,14.92
2023-04-24T20:01:20.470Z,14.86
2023-04-24T20:03:49.729Z,14.89
2023-04-24T20:06:18.934Z,14.88
2023-04-24T20:08:48.599Z,14.80
2023-04-24T20:11:19.870Z,14.75
2023-04-24T20:13:48.563Z,14.80
2023-04-24T20:16:18.841Z,15.10
2023-04-24T20:18:48.153Z,14.90
2023-04-24T20:21:17.316Z,14.86
2023-04-24T20:23:46.557Z,14.89
2023-04-24T20:26:16.835Z,15.11
2023-04-24T20:28:50.667Z,15.00
2023-04-24T20:31:20.514Z,14.98
2023-04-24T20:33:49.797Z,14.90
2023-04-24T20:36:18.725Z,14.44
2023-04-24T20:38:48.360Z,14.67
2023-04-24T20:41:17.617Z,14.85
2023-04-24T20:43:47.732Z,14.66
2023-04-24T20:46:16.519Z,14.97
2023-04-24T20:48:45.592Z,14.78
2023-04-24T20:51:14.518Z,14.75
2023-04-24T20:53:43.212Z,14.90
2023-04-24T20:56:12.401Z,15.18
2023-04-24T20:58:41.181Z,15.26
2023-04-24T21:01:11.424Z,15.14
2023-04-24T21:03:40.629Z,15.20
2023-04-24T21:06:09.586Z,15.15
2023-04-24T21:08:38.385Z,14.92
2023-04-24T21:11:07.380Z,14.62
2023-04-24T21:13:38.743Z,14.68
2023-04-24T21:16:07.986Z,14.96
2023-04-24T21:18:41.233Z,14.99
2023-04-24T21:21:10.622Z,15.06
2023-04-24T21:23:39.399Z,15.27
2023-04-24T21:26:08.207Z,15.19
2023-04-24T21:28:37.771Z,15.28
2023-04-24T21:31:06.784Z,15.29
2023-04-24T21:33:37.044Z,14.86
2023-04-24T21:36:06.689Z,14.89
2023-04-24T21:38:35.467Z,15.27
2023-04-24T21:41:04.215Z,15.13
2023-04-24T21:43:44.068Z,15.38
2023-04-24T21:46:19.234Z,15.19
2023-04-24T21:48:49.552Z,15.25
2023-04-24T21:51:20.429Z,14.95
2023-04-24T21:53:49.900Z,14.78
2023-04-24T21:56:18.917Z,14.87
2023-04-24T21:58:47.625Z,14.98
2023-04-24T22:01:16.710Z,14.44
2023-04-24T22:03:45.940Z,14.37
2023-04-24T22:06:16.191Z,14.17
2023-04-24T22:08:47.708Z,13.85
2023-04-24T22:11:25.748Z,13.92
2023-04-24T22:13:55.393Z,13.89
2023-04-24T22:16:25.253Z,13.75
2023-04-24T22:18:55.233Z,13.63
2023-04-24T22:21:26.313Z,13.64
2023-04-24T22:23:54.971Z,13.82
2023-04-24T22:26:23.889Z,13.53
2023-04-24T22:28:52.558Z,13.72
2023-04-24T22:31:21.298Z,13.35
2023-04-24T22:33:51.645Z,13.56
2023-04-24T22:36:20.551Z,13.08
2023-04-24T22:38:50.612Z,12.98
2023-04-24T22:41:19.654Z,13.06
2023-04-24T22:43:48.761Z,12.90
2023-04-24T22:46:17.680Z,12.72
2023-04-24T22:48:48.360Z,12.94
2023-04-24T22:51:18.165Z,12.86
2023-04-24T22:53:49.630Z,12.71
2023-04-24T22:56:19.748Z,12.85
2023-04-24T22:58:48.708Z,12.80
2023-04-24T23:01:17.570Z,12.88
2023-04-24T23:03:46.455Z,12.68
2023-04-24T23:06:15.700Z,12.68
2023-04-24T23:08:44.405Z,12.99
2023-04-24T23:11:13.087Z,12.85
2023-04-24T23:13:44.403Z,13.11
2023-04-24T23:16:13.115Z,13.17
2023-04-24T23:18:42.110Z,13.05
2023-04-24T23:21:10.768Z,12.95
2023-04-24T23:23:39.873Z,12.93
2023-04-24T23:26:08.967Z,12.93
2023-04-24T23:28:39.549Z,13.01
2023-04-24T23:31:09.897Z,12.50
2023-04-24T23:33:38.591Z,12.91
2023-04-24T23:36:07.674Z,13.13
2023-04-24T23:38:46.478Z,12.75
2023-04-24T23:41:18.156Z,12.51
2023-04-24T23:43:49.328Z,12.70
2023-04-24T23:46:19.602Z,12.67
2023-04-24T23:48:48.669Z,12.89
2023-04-24T23:51:17.346Z,12.82
2023-04-24T23:53:46.446Z,12.77
2023-04-24T23:56:15.874Z,12.77
2023-04-24T23:58:44.571Z,12.78
